RYR1744 LGKR-LZIB
Flight info
| Callsign | RYR1744 |
|---|---|
| Flight time | 1h 33m |
| Altitude | 38000 |
| Route | NIKRO DCT OVVER DCT UNDER DCT ALELU DCT TADAM DCT TONDO DCT JOZEP DCT PUCOG DCT BODZA DCT XOMBA |
| Aircraft | B738/M-SDE2E3FGHIRWXY/LB1 |
Departure
| Time | 2026-05-07 19:13 |
|---|---|
| Airport | Corfu Ioannis Kapodistrias International Airport (LGKR) |
Arrival
| Time | 2026-05-07 20:47 |
|---|---|
| Airport | M. R. Štefánik Airport (LZIB) |
| Time | Latitude | Longitude | Altitude | Speed | Heading |
|---|---|---|---|---|---|
| 2026-05-07 18:46 | 39.60743 | 19.91342 | 19 ft | 0 kts | 78° |
| 2026-05-07 19:05 | 39.60741 | 19.91330 | 19 ft | 4 kts | 83° |
| 2026-05-07 19:06 | 39.60741 | 19.91296 | 17 ft | 4 kts | 102° |
| 2026-05-07 19:06 | 39.60746 | 19.91236 | 17 ft | 4 kts | 87° |
| 2026-05-07 19:06 | 39.60752 | 19.91208 | 17 ft | 4 kts | 147° |
| 2026-05-07 19:07 | 39.60775 | 19.91198 | 17 ft | 4 kts | 169° |
| 2026-05-07 19:07 | 39.60793 | 19.91193 | 17 ft | 0 kts | 169° |
| 2026-05-07 19:09 | 39.60778 | 19.91197 | 17 ft | 8 kts | 169° |
| 2026-05-07 19:09 | 39.60686 | 19.91220 | 17 ft | 18 kts | 169° |
| 2026-05-07 19:09 | 39.60569 | 19.91189 | 17 ft | 18 kts | 212° |
| 2026-05-07 19:10 | 39.60452 | 19.91146 | 18 ft | 18 kts | 169° |
| 2026-05-07 19:10 | 39.60326 | 19.91179 | 19 ft | 21 kts | 168° |
| 2026-05-07 19:10 | 39.60162 | 19.91222 | 21 ft | 27 kts | 168° |
| 2026-05-07 19:10 | 39.59971 | 19.91271 | 20 ft | 28 kts | 168° |
| 2026-05-07 19:11 | 39.59788 | 19.91319 | 20 ft | 26 kts | 168° |
| 2026-05-07 19:11 | 39.59618 | 19.91364 | 18 ft | 24 kts | 168° |
| 2026-05-07 19:11 | 39.59456 | 19.91407 | 16 ft | 24 kts | 168° |
| 2026-05-07 19:11 | 39.59289 | 19.91451 | 16 ft | 19 kts | 168° |
| 2026-05-07 19:12 | 39.59208 | 19.91481 | 17 ft | 9 kts | 133° |
| 2026-05-07 19:12 | 39.59167 | 19.91496 | 16 ft | 3 kts | 259° |
| 2026-05-07 19:12 | 39.59175 | 19.91479 | 16 ft | 2 kts | 339° |
| 2026-05-07 19:12 | 39.59194 | 19.91473 | 16 ft | 10 kts | 347° |
| 2026-05-07 19:13 | 39.59570 | 19.91379 | 17 ft | 100 kts | 349° |
| 2026-05-07 19:13 | 39.60513 | 19.91137 | 113 ft | 167 kts | 349° |
| 2026-05-07 19:13 | 39.61672 | 19.90861 | 1083 ft | 172 kts | 350° |
| 2026-05-07 19:13 | 39.62866 | 19.90569 | 2091 ft | 182 kts | 348° |
| 2026-05-07 19:14 | 39.64132 | 19.90218 | 2833 ft | 196 kts | 343° |
| 2026-05-07 19:14 | 39.65315 | 19.89192 | 3282 ft | 217 kts | 307° |
| 2026-05-07 19:14 | 39.65851 | 19.87338 | 3909 ft | 227 kts | 273° |
| 2026-05-07 19:14 | 39.65797 | 19.85234 | 4628 ft | 238 kts | 265° |
| 2026-05-07 19:15 | 39.65391 | 19.83144 | 5438 ft | 243 kts | 239° |
| 2026-05-07 19:15 | 39.64246 | 19.81579 | 6332 ft | 241 kts | 208° |
| 2026-05-07 19:15 | 39.62652 | 19.80992 | 7232 ft | 240 kts | 178° |
| 2026-05-07 19:15 | 39.61045 | 19.81532 | 8047 ft | 244 kts | 149° |
| 2026-05-07 19:16 | 39.59831 | 19.83079 | 8835 ft | 250 kts | 120° |
| 2026-05-07 19:16 | 39.59315 | 19.85247 | 9620 ft | 256 kts | 98° |
| 2026-05-07 19:16 | 39.59405 | 19.87588 | 10214 ft | 273 kts | 75° |
| 2026-05-07 19:16 | 39.60112 | 19.90013 | 10450 ft | 302 kts | 69° |
| 2026-05-07 19:17 | 39.60965 | 19.92638 | 10650 ft | 330 kts | 69° |
| 2026-05-07 19:17 | 39.61857 | 19.95457 | 10897 ft | 353 kts | 70° |
| 2026-05-07 19:17 | 39.62774 | 19.98512 | 11502 ft | 364 kts | 71° |
| 2026-05-07 19:17 | 39.63655 | 20.01575 | 12190 ft | 371 kts | 71° |
| 2026-05-07 19:18 | 39.64551 | 20.04751 | 12851 ft | 379 kts | 71° |
| 2026-05-07 19:18 | 39.65774 | 20.07799 | 13580 ft | 385 kts | 50° |
| 2026-05-07 19:18 | 39.67785 | 20.10042 | 14420 ft | 383 kts | 27° |
| 2026-05-07 19:18 | 39.70264 | 20.11254 | 15232 ft | 379 kts | 7° |
| 2026-05-07 19:19 | 39.72873 | 20.11397 | 15958 ft | 375 kts | 351° |
| 2026-05-07 19:19 | 39.75479 | 20.11098 | 16671 ft | 377 kts | 351° |
| 2026-05-07 19:19 | 39.78098 | 20.10746 | 17321 ft | 380 kts | 349° |
| 2026-05-07 19:19 | 39.80746 | 20.10379 | 18013 ft | 383 kts | 349° |
| 2026-05-07 19:20 | 39.83404 | 20.10020 | 18735 ft | 385 kts | 349° |
| 2026-05-07 19:20 | 39.86084 | 20.09670 | 19398 ft | 388 kts | 350° |
| 2026-05-07 19:20 | 39.88779 | 20.09327 | 20045 ft | 391 kts | 350° |
| 2026-05-07 19:20 | 39.91503 | 20.08989 | 20677 ft | 394 kts | 351° |
| 2026-05-07 19:21 | 39.94243 | 20.08654 | 21295 ft | 397 kts | 351° |
| 2026-05-07 19:21 | 39.97003 | 20.08317 | 21910 ft | 400 kts | 351° |
| 2026-05-07 19:21 | 39.99777 | 20.07979 | 22497 ft | 402 kts | 351° |
| 2026-05-07 19:21 | 40.02574 | 20.07639 | 23055 ft | 405 kts | 351° |
| 2026-05-07 19:22 | 40.05389 | 20.07296 | 23593 ft | 408 kts | 351° |
| 2026-05-07 19:22 | 40.08221 | 20.06951 | 24112 ft | 410 kts | 351° |
| 2026-05-07 19:22 | 40.11070 | 20.06603 | 24584 ft | 412 kts | 351° |
| 2026-05-07 19:22 | 40.13931 | 20.06254 | 25078 ft | 414 kts | 351° |
| 2026-05-07 19:23 | 40.16804 | 20.05903 | 25615 ft | 415 kts | 351° |
| 2026-05-07 19:23 | 40.19684 | 20.05550 | 26140 ft | 415 kts | 351° |
| 2026-05-07 19:23 | 40.22565 | 20.05198 | 26617 ft | 416 kts | 350° |
| 2026-05-07 19:23 | 40.25456 | 20.04843 | 27062 ft | 418 kts | 350° |
| 2026-05-07 19:24 | 40.28355 | 20.04488 | 27523 ft | 419 kts | 350° |
| 2026-05-07 19:24 | 40.31263 | 20.04130 | 27951 ft | 421 kts | 350° |
| 2026-05-07 19:24 | 40.34187 | 20.03769 | 28368 ft | 423 kts | 350° |
| 2026-05-07 19:24 | 40.37117 | 20.03406 | 28804 ft | 424 kts | 349° |
| 2026-05-07 19:25 | 40.40065 | 20.03043 | 29216 ft | 426 kts | 349° |
| 2026-05-07 19:25 | 40.42981 | 20.02685 | 29615 ft | 427 kts | 349° |
| 2026-05-07 19:25 | 40.45981 | 20.02315 | 29993 ft | 428 kts | 349° |
| 2026-05-07 19:25 | 40.48949 | 20.01949 | 30301 ft | 430 kts | 349° |
| 2026-05-07 19:26 | 40.51934 | 20.01582 | 30605 ft | 432 kts | 349° |
| 2026-05-07 19:26 | 40.54928 | 20.01210 | 30941 ft | 432 kts | 348° |
| 2026-05-07 19:26 | 40.57914 | 20.00843 | 31384 ft | 431 kts | 348° |
| 2026-05-07 19:26 | 40.60891 | 20.00480 | 31870 ft | 428 kts | 347° |
| 2026-05-07 19:27 | 40.63849 | 20.00122 | 32302 ft | 426 kts | 347° |
| 2026-05-07 19:27 | 40.66795 | 19.99762 | 32727 ft | 424 kts | 345° |
| 2026-05-07 19:27 | 40.69738 | 19.99369 | 33081 ft | 425 kts | 345° |
| 2026-05-07 19:27 | 40.72685 | 19.99006 | 33417 ft | 424 kts | 345° |
| 2026-05-07 19:28 | 40.75624 | 19.98645 | 33750 ft | 423 kts | 345° |
| 2026-05-07 19:28 | 40.78524 | 19.98299 | 34072 ft | 424 kts | 344° |
| 2026-05-07 19:28 | 40.81453 | 19.97950 | 34483 ft | 422 kts | 344° |
| 2026-05-07 19:28 | 40.84360 | 19.97593 | 35035 ft | 416 kts | 343° |
| 2026-05-07 19:29 | 40.87222 | 19.97248 | 35498 ft | 411 kts | 343° |
| 2026-05-07 19:29 | 40.90066 | 19.96884 | 35750 ft | 412 kts | 343° |
| 2026-05-07 19:29 | 40.92928 | 19.96523 | 35972 ft | 413 kts | 343° |
| 2026-05-07 19:29 | 40.95781 | 19.96167 | 36288 ft | 411 kts | 343° |
| 2026-05-07 19:30 | 40.98622 | 19.95817 | 36602 ft | 409 kts | 343° |
| 2026-05-07 19:30 | 41.01455 | 19.95468 | 36905 ft | 407 kts | 343° |
| 2026-05-07 19:30 | 41.04267 | 19.95119 | 37222 ft | 405 kts | 342° |
| 2026-05-07 19:30 | 41.07067 | 19.94774 | 37506 ft | 404 kts | 342° |
| 2026-05-07 19:31 | 41.09873 | 19.94488 | 37748 ft | 405 kts | 344° |
| 2026-05-07 19:31 | 41.12691 | 19.94292 | 38029 ft | 405 kts | 345° |
| 2026-05-07 19:31 | 41.18354 | 19.93959 | 38090 ft | 407 kts | 345° |
| 2026-05-07 19:32 | 41.23945 | 19.93639 | 38078 ft | 397 kts | 344° |
| 2026-05-07 19:32 | 41.29458 | 19.93284 | 38093 ft | 396 kts | 344° |
| 2026-05-07 19:33 | 41.34971 | 19.92905 | 38091 ft | 398 kts | 344° |
| 2026-05-07 19:33 | 41.40511 | 19.92524 | 38075 ft | 398 kts | 344° |
| 2026-05-07 19:34 | 41.46037 | 19.92147 | 38088 ft | 398 kts | 344° |
| 2026-05-07 19:34 | 41.51577 | 19.91765 | 38070 ft | 399 kts | 344° |
| 2026-05-07 19:35 | 41.57126 | 19.91390 | 38076 ft | 399 kts | 344° |
| 2026-05-07 19:35 | 41.62659 | 19.91012 | 38089 ft | 398 kts | 344° |
| 2026-05-07 19:36 | 41.68185 | 19.90634 | 38079 ft | 397 kts | 344° |
| 2026-05-07 19:36 | 41.73709 | 19.90252 | 38094 ft | 398 kts | 344° |
| 2026-05-07 19:37 | 41.79254 | 19.89874 | 38090 ft | 400 kts | 344° |
| 2026-05-07 19:37 | 41.84825 | 19.89491 | 38087 ft | 402 kts | 344° |
| 2026-05-07 19:38 | 41.90413 | 19.89105 | 38072 ft | 403 kts | 344° |
| 2026-05-07 19:38 | 41.96020 | 19.88717 | 38073 ft | 403 kts | 344° |
| 2026-05-07 19:39 | 42.01626 | 19.88332 | 38077 ft | 405 kts | 344° |
| 2026-05-07 19:39 | 42.06304 | 19.88005 | 38078 ft | 405 kts | 344° |
| 2026-05-07 19:40 | 42.12819 | 19.87556 | 38070 ft | 402 kts | 344° |
| 2026-05-07 19:40 | 42.18378 | 19.87173 | 38092 ft | 398 kts | 344° |
| 2026-05-07 19:41 | 42.23002 | 19.86845 | 38092 ft | 393 kts | 344° |
| 2026-05-07 19:41 | 42.28416 | 19.86470 | 38099 ft | 393 kts | 344° |
| 2026-05-07 19:42 | 42.33991 | 19.86064 | 38092 ft | 403 kts | 344° |
| 2026-05-07 19:42 | 42.39598 | 19.85678 | 38106 ft | 409 kts | 345° |
| 2026-05-07 19:43 | 42.45293 | 19.85285 | 38098 ft | 410 kts | 345° |
| 2026-05-07 19:43 | 42.50983 | 19.84842 | 38113 ft | 409 kts | 344° |
| 2026-05-07 19:44 | 42.56682 | 19.84228 | 38100 ft | 413 kts | 343° |
| 2026-05-07 19:44 | 42.62394 | 19.83593 | 38101 ft | 411 kts | 344° |
| 2026-05-07 19:45 | 42.68092 | 19.82980 | 38094 ft | 411 kts | 344° |
| 2026-05-07 19:45 | 42.73786 | 19.82369 | 38076 ft | 410 kts | 345° |
| 2026-05-07 19:46 | 42.79468 | 19.81761 | 38089 ft | 409 kts | 345° |
| 2026-05-07 19:46 | 42.85145 | 19.81157 | 38098 ft | 409 kts | 345° |
| 2026-05-07 19:47 | 42.90829 | 19.80551 | 38088 ft | 411 kts | 345° |
| 2026-05-07 19:47 | 42.96545 | 19.79938 | 38101 ft | 413 kts | 346° |
| 2026-05-07 19:48 | 43.02310 | 19.79319 | 38080 ft | 418 kts | 346° |
| 2026-05-07 19:48 | 43.08127 | 19.78695 | 38097 ft | 422 kts | 346° |
| 2026-05-07 19:49 | 43.14015 | 19.78062 | 38095 ft | 426 kts | 347° |
| 2026-05-07 19:49 | 43.19957 | 19.77422 | 38095 ft | 430 kts | 347° |
| 2026-05-07 19:50 | 43.25942 | 19.76778 | 38077 ft | 433 kts | 348° |
| 2026-05-07 19:50 | 43.31954 | 19.76130 | 38071 ft | 434 kts | 348° |
| 2026-05-07 19:51 | 43.37973 | 19.75482 | 38085 ft | 433 kts | 348° |
| 2026-05-07 19:51 | 43.43945 | 19.74837 | 38067 ft | 434 kts | 348° |
| 2026-05-07 19:52 | 43.49960 | 19.74183 | 38054 ft | 433 kts | 349° |
| 2026-05-07 19:52 | 43.55963 | 19.73531 | 38059 ft | 432 kts | 349° |
| 2026-05-07 19:53 | 43.61960 | 19.72876 | 38066 ft | 432 kts | 349° |
| 2026-05-07 19:53 | 43.67949 | 19.72222 | 38065 ft | 431 kts | 349° |
| 2026-05-07 19:54 | 43.73933 | 19.71566 | 38062 ft | 432 kts | 349° |
| 2026-05-07 19:54 | 43.79920 | 19.70907 | 38064 ft | 431 kts | 349° |
| 2026-05-07 19:55 | 43.85916 | 19.70248 | 38062 ft | 433 kts | 349° |
| 2026-05-07 19:55 | 43.91929 | 19.69579 | 38059 ft | 434 kts | 350° |
| 2026-05-07 19:56 | 43.97978 | 19.68921 | 38054 ft | 438 kts | 351° |
| 2026-05-07 19:56 | 44.04063 | 19.68294 | 38062 ft | 439 kts | 350° |
| 2026-05-07 19:57 | 44.10162 | 19.67593 | 38046 ft | 440 kts | 350° |
| 2026-05-07 19:57 | 44.16260 | 19.66896 | 38059 ft | 440 kts | 350° |
| 2026-05-07 19:58 | 44.22362 | 19.66212 | 38051 ft | 440 kts | 350° |
| 2026-05-07 19:58 | 44.28459 | 19.65533 | 38060 ft | 439 kts | 350° |
| 2026-05-07 19:59 | 44.34551 | 19.64852 | 38053 ft | 439 kts | 350° |
| 2026-05-07 19:59 | 44.40634 | 19.64170 | 38053 ft | 438 kts | 350° |
| 2026-05-07 20:00 | 44.46707 | 19.63487 | 38056 ft | 438 kts | 350° |
| 2026-05-07 20:00 | 44.52785 | 19.62801 | 38051 ft | 438 kts | 350° |
| 2026-05-07 20:01 | 44.58867 | 19.62116 | 38046 ft | 438 kts | 350° |
| 2026-05-07 20:01 | 44.64945 | 19.61430 | 38049 ft | 438 kts | 350° |
| 2026-05-07 20:02 | 44.71031 | 19.60741 | 38045 ft | 439 kts | 350° |
| 2026-05-07 20:02 | 44.77119 | 19.60048 | 38044 ft | 439 kts | 350° |
| 2026-05-07 20:03 | 44.83215 | 19.59356 | 38045 ft | 440 kts | 350° |
| 2026-05-07 20:03 | 44.89319 | 19.58660 | 38046 ft | 441 kts | 350° |
| 2026-05-07 20:04 | 44.95439 | 19.57962 | 38046 ft | 441 kts | 350° |
| 2026-05-07 20:04 | 45.01567 | 19.57261 | 38048 ft | 442 kts | 350° |
| 2026-05-07 20:05 | 45.07701 | 19.56558 | 38048 ft | 443 kts | 350° |
| 2026-05-07 20:05 | 45.13855 | 19.55850 | 38044 ft | 444 kts | 350° |
| 2026-05-07 20:06 | 45.20012 | 19.55141 | 38036 ft | 445 kts | 350° |
| 2026-05-07 20:06 | 45.26177 | 19.54350 | 38036 ft | 443 kts | 347° |
| 2026-05-07 20:07 | 45.32253 | 19.52983 | 38038 ft | 442 kts | 345° |
| 2026-05-07 20:07 | 45.38261 | 19.51476 | 38036 ft | 442 kts | 345° |
| 2026-05-07 20:08 | 45.44325 | 19.49997 | 38034 ft | 442 kts | 345° |
| 2026-05-07 20:08 | 45.50395 | 19.48553 | 38035 ft | 442 kts | 346° |
| 2026-05-07 20:09 | 45.56475 | 19.47119 | 38028 ft | 443 kts | 346° |
| 2026-05-07 20:10 | 45.65588 | 19.44961 | 38028 ft | 443 kts | 345° |
| 2026-05-07 20:10 | 45.71665 | 19.43514 | 38028 ft | 442 kts | 345° |
| 2026-05-07 20:11 | 45.77739 | 19.42063 | 38027 ft | 442 kts | 346° |
| 2026-05-07 20:11 | 45.83813 | 19.40615 | 38031 ft | 442 kts | 346° |
| 2026-05-07 20:12 | 45.89880 | 19.39162 | 38025 ft | 442 kts | 346° |
| 2026-05-07 20:12 | 45.95938 | 19.37710 | 38041 ft | 441 kts | 346° |
| 2026-05-07 20:13 | 46.01986 | 19.36256 | 38049 ft | 441 kts | 346° |
| 2026-05-07 20:13 | 46.07893 | 19.34140 | 38058 ft | 434 kts | 335° |
| 2026-05-07 20:14 | 46.13557 | 19.31073 | 38046 ft | 435 kts | 334° |
| 2026-05-07 20:14 | 46.19231 | 19.27960 | 38047 ft | 437 kts | 334° |
| 2026-05-07 20:15 | 46.24946 | 19.24883 | 38049 ft | 439 kts | 334° |
| 2026-05-07 20:15 | 46.30690 | 19.21820 | 38045 ft | 441 kts | 335° |
| 2026-05-07 20:16 | 46.36461 | 19.18744 | 38051 ft | 442 kts | 334° |
| 2026-05-07 20:16 | 46.42247 | 19.15652 | 37992 ft | 445 kts | 334° |
| 2026-05-07 20:16 | 46.45170 | 19.14084 | 37528 ft | 450 kts | 334° |
| 2026-05-07 20:17 | 46.48098 | 19.12516 | 37012 ft | 448 kts | 334° |
| 2026-05-07 20:17 | 46.51019 | 19.10950 | 36487 ft | 447 kts | 334° |
| 2026-05-07 20:17 | 46.53889 | 19.09411 | 35953 ft | 446 kts | 334° |
| 2026-05-07 20:17 | 46.56801 | 19.07845 | 35345 ft | 447 kts | 334° |
| 2026-05-07 20:18 | 46.59720 | 19.06273 | 34743 ft | 448 kts | 334° |
| 2026-05-07 20:18 | 46.62649 | 19.04703 | 34120 ft | 450 kts | 335° |
| 2026-05-07 20:18 | 46.65586 | 19.03124 | 33486 ft | 451 kts | 334° |
| 2026-05-07 20:18 | 46.68531 | 19.01528 | 32840 ft | 452 kts | 334° |
| 2026-05-07 20:19 | 46.71485 | 18.99924 | 32254 ft | 452 kts | 334° |
| 2026-05-07 20:19 | 46.74423 | 18.98329 | 31793 ft | 449 kts | 334° |
| 2026-05-07 20:19 | 46.77338 | 18.96747 | 31310 ft | 446 kts | 334° |
| 2026-05-07 20:19 | 46.80241 | 18.95173 | 30842 ft | 444 kts | 334° |
| 2026-05-07 20:20 | 46.83131 | 18.93604 | 30387 ft | 441 kts | 334° |
| 2026-05-07 20:20 | 46.85997 | 18.92045 | 29918 ft | 438 kts | 334° |
| 2026-05-07 20:20 | 46.88845 | 18.90493 | 29452 ft | 436 kts | 334° |
| 2026-05-07 20:20 | 46.91675 | 18.88948 | 28985 ft | 433 kts | 334° |
| 2026-05-07 20:21 | 46.94487 | 18.87412 | 28502 ft | 430 kts | 334° |
| 2026-05-07 20:21 | 46.97286 | 18.85881 | 28041 ft | 428 kts | 334° |
| 2026-05-07 20:21 | 47.00065 | 18.84361 | 27574 ft | 425 kts | 334° |
| 2026-05-07 20:21 | 47.02829 | 18.82847 | 27110 ft | 423 kts | 334° |
| 2026-05-07 20:22 | 47.05575 | 18.81339 | 26645 ft | 420 kts | 334° |
| 2026-05-07 20:22 | 47.08305 | 18.79839 | 26189 ft | 418 kts | 334° |
| 2026-05-07 20:22 | 47.11019 | 18.78345 | 25728 ft | 415 kts | 334° |
| 2026-05-07 20:22 | 47.13716 | 18.76860 | 25268 ft | 413 kts | 334° |
| 2026-05-07 20:23 | 47.16397 | 18.75383 | 24819 ft | 410 kts | 334° |
| 2026-05-07 20:23 | 47.19065 | 18.73907 | 24368 ft | 408 kts | 334° |
| 2026-05-07 20:23 | 47.21672 | 18.72313 | 23909 ft | 404 kts | 332° |
| 2026-05-07 20:23 | 47.24233 | 18.70636 | 23458 ft | 402 kts | 331° |
| 2026-05-07 20:24 | 47.26773 | 18.68941 | 23010 ft | 400 kts | 331° |
| 2026-05-07 20:24 | 47.29300 | 18.67260 | 22569 ft | 397 kts | 331° |
| 2026-05-07 20:24 | 47.31819 | 18.65600 | 22131 ft | 396 kts | 331° |
| 2026-05-07 20:24 | 47.34329 | 18.63957 | 21687 ft | 394 kts | 331° |
| 2026-05-07 20:25 | 47.36826 | 18.62326 | 21246 ft | 392 kts | 332° |
| 2026-05-07 20:25 | 47.39310 | 18.60703 | 20796 ft | 389 kts | 332° |
| 2026-05-07 20:25 | 47.41741 | 18.58987 | 20356 ft | 384 kts | 325° |
| 2026-05-07 20:25 | 47.43911 | 18.56763 | 19930 ft | 377 kts | 317° |
| 2026-05-07 20:26 | 47.45970 | 18.54384 | 19498 ft | 374 kts | 316° |
| 2026-05-07 20:26 | 47.47317 | 18.52812 | 19212 ft | 373 kts | 316° |
| 2026-05-07 20:26 | 47.49352 | 18.50455 | 18781 ft | 371 kts | 317° |
| 2026-05-07 20:26 | 47.51387 | 18.48129 | 18356 ft | 368 kts | 317° |
| 2026-05-07 20:27 | 47.53404 | 18.45837 | 17936 ft | 366 kts | 317° |
| 2026-05-07 20:27 | 47.55410 | 18.43522 | 17515 ft | 362 kts | 314° |
| 2026-05-07 20:27 | 47.57145 | 18.40901 | 17075 ft | 354 kts | 304° |
| 2026-05-07 20:27 | 47.59168 | 18.37147 | 16517 ft | 350 kts | 303° |
| 2026-05-07 20:28 | 47.60178 | 18.35235 | 16229 ft | 348 kts | 303° |
| 2026-05-07 20:28 | 47.61666 | 18.32419 | 15817 ft | 346 kts | 303° |
| 2026-05-07 20:28 | 47.63150 | 18.29630 | 15421 ft | 343 kts | 304° |
| 2026-05-07 20:28 | 47.64630 | 18.26873 | 15004 ft | 342 kts | 305° |
| 2026-05-07 20:29 | 47.66138 | 18.24176 | 14618 ft | 339 kts | 304° |
| 2026-05-07 20:29 | 47.67592 | 18.21448 | 14225 ft | 336 kts | 304° |
| 2026-05-07 20:29 | 47.69021 | 18.18727 | 13825 ft | 333 kts | 304° |
| 2026-05-07 20:29 | 47.70448 | 18.16030 | 13439 ft | 331 kts | 304° |
| 2026-05-07 20:30 | 47.71873 | 18.13358 | 13051 ft | 329 kts | 305° |
| 2026-05-07 20:30 | 47.73294 | 18.10701 | 12654 ft | 327 kts | 305° |
| 2026-05-07 20:30 | 47.74714 | 18.08076 | 12267 ft | 326 kts | 307° |
| 2026-05-07 20:30 | 47.76331 | 18.05729 | 11930 ft | 325 kts | 321° |
| 2026-05-07 20:31 | 47.78263 | 18.03988 | 11710 ft | 325 kts | 329° |
| 2026-05-07 20:31 | 47.80263 | 18.02425 | 11482 ft | 324 kts | 330° |
| 2026-05-07 20:31 | 47.82264 | 18.00884 | 11239 ft | 325 kts | 330° |
| 2026-05-07 20:31 | 47.84236 | 17.99351 | 11006 ft | 322 kts | 330° |
| 2026-05-07 20:32 | 47.86222 | 17.97788 | 10766 ft | 316 kts | 329° |
| 2026-05-07 20:32 | 47.88140 | 17.96262 | 10537 ft | 309 kts | 329° |
| 2026-05-07 20:32 | 47.90019 | 17.94758 | 10302 ft | 304 kts | 329° |
| 2026-05-07 20:32 | 47.91864 | 17.93279 | 10088 ft | 298 kts | 329° |
| 2026-05-07 20:33 | 47.93669 | 17.91829 | 9873 ft | 293 kts | 329° |
| 2026-05-07 20:33 | 47.95450 | 17.90399 | 9662 ft | 287 kts | 330° |
| 2026-05-07 20:33 | 47.97197 | 17.88997 | 9460 ft | 283 kts | 330° |
| 2026-05-07 20:33 | 47.98925 | 17.87610 | 9253 ft | 281 kts | 330° |
| 2026-05-07 20:34 | 48.00643 | 17.86230 | 9065 ft | 280 kts | 330° |
| 2026-05-07 20:34 | 48.02354 | 17.84854 | 8866 ft | 279 kts | 330° |
| 2026-05-07 20:34 | 48.04057 | 17.83483 | 8667 ft | 278 kts | 330° |
| 2026-05-07 20:34 | 48.05704 | 17.82064 | 8457 ft | 276 kts | 321° |
| 2026-05-07 20:35 | 48.07088 | 17.80056 | 8279 ft | 273 kts | 311° |
| 2026-05-07 20:35 | 48.08382 | 17.77984 | 8079 ft | 273 kts | 312° |
| 2026-05-07 20:35 | 48.09694 | 17.75937 | 7885 ft | 272 kts | 313° |
| 2026-05-07 20:35 | 48.11011 | 17.73906 | 7686 ft | 272 kts | 313° |
| 2026-05-07 20:36 | 48.12310 | 17.71910 | 7495 ft | 271 kts | 313° |
| 2026-05-07 20:36 | 48.13625 | 17.69890 | 7303 ft | 271 kts | 313° |
| 2026-05-07 20:36 | 48.14942 | 17.67871 | 7108 ft | 271 kts | 313° |
| 2026-05-07 20:36 | 48.16255 | 17.65858 | 6921 ft | 270 kts | 313° |
| 2026-05-07 20:37 | 48.17567 | 17.63846 | 6712 ft | 269 kts | 313° |
| 2026-05-07 20:37 | 48.18866 | 17.61851 | 6493 ft | 263 kts | 313° |
| 2026-05-07 20:37 | 48.20131 | 17.59910 | 6284 ft | 251 kts | 313° |
| 2026-05-07 20:37 | 48.21325 | 17.58073 | 6081 ft | 241 kts | 313° |
| 2026-05-07 20:38 | 48.22453 | 17.56337 | 5919 ft | 230 kts | 313° |
| 2026-05-07 20:38 | 48.23551 | 17.54644 | 5763 ft | 225 kts | 313° |
| 2026-05-07 20:38 | 48.24770 | 17.53211 | 5595 ft | 226 kts | 338° |
| 2026-05-07 20:38 | 48.26337 | 17.53017 | 5479 ft | 227 kts | 13° |
| 2026-05-07 20:39 | 48.27735 | 17.54088 | 5371 ft | 230 kts | 39° |
| 2026-05-07 20:39 | 48.28916 | 17.55755 | 5231 ft | 235 kts | 43° |
| 2026-05-07 20:39 | 48.30090 | 17.57436 | 5038 ft | 237 kts | 35° |
| 2026-05-07 20:39 | 48.31619 | 17.58240 | 4850 ft | 231 kts | 355° |
| 2026-05-07 20:40 | 48.33099 | 17.57576 | 4712 ft | 225 kts | 326° |
| 2026-05-07 20:40 | 48.34320 | 17.56083 | 4566 ft | 223 kts | 314° |
| 2026-05-07 20:40 | 48.35390 | 17.54433 | 4407 ft | 224 kts | 312° |
| 2026-05-07 20:40 | 48.36244 | 17.52558 | 4225 ft | 212 kts | 285° |
| 2026-05-07 20:41 | 48.36312 | 17.50480 | 4153 ft | 193 kts | 257° |
| 2026-05-07 20:41 | 48.35683 | 17.48763 | 4075 ft | 187 kts | 225° |
| 2026-05-07 20:41 | 48.34780 | 17.47349 | 4059 ft | 189 kts | 229° |
| 2026-05-07 20:41 | 48.33882 | 17.45885 | 4038 ft | 192 kts | 227° |
| 2026-05-07 20:42 | 48.32952 | 17.44439 | 3993 ft | 192 kts | 226° |
| 2026-05-07 20:42 | 48.32010 | 17.43022 | 3934 ft | 191 kts | 226° |
| 2026-05-07 20:42 | 48.31088 | 17.41617 | 3873 ft | 184 kts | 226° |
| 2026-05-07 20:42 | 48.30196 | 17.40296 | 3707 ft | 177 kts | 225° |
| 2026-05-07 20:43 | 48.29327 | 17.39035 | 3487 ft | 171 kts | 225° |
| 2026-05-07 20:43 | 48.28483 | 17.37818 | 3268 ft | 167 kts | 225° |
| 2026-05-07 20:43 | 48.27642 | 17.36608 | 3058 ft | 168 kts | 225° |
| 2026-05-07 20:43 | 48.26799 | 17.35393 | 2832 ft | 168 kts | 225° |
| 2026-05-07 20:44 | 48.25962 | 17.34182 | 2609 ft | 166 kts | 225° |
| 2026-05-07 20:44 | 48.25129 | 17.32988 | 2398 ft | 165 kts | 225° |
| 2026-05-07 20:44 | 48.24300 | 17.31792 | 2163 ft | 165 kts | 225° |
| 2026-05-07 20:44 | 48.23484 | 17.30613 | 1949 ft | 161 kts | 225° |
| 2026-05-07 20:45 | 48.22689 | 17.29469 | 1737 ft | 156 kts | 225° |
| 2026-05-07 20:45 | 48.21934 | 17.28381 | 1549 ft | 144 kts | 225° |
| 2026-05-07 20:45 | 48.21216 | 17.27346 | 1347 ft | 144 kts | 225° |
| 2026-05-07 20:45 | 48.20507 | 17.26321 | 1159 ft | 141 kts | 225° |
| 2026-05-07 20:46 | 48.19807 | 17.25311 | 986 ft | 139 kts | 225° |
| 2026-05-07 20:46 | 48.19117 | 17.24306 | 797 ft | 138 kts | 226° |
| 2026-05-07 20:46 | 48.18417 | 17.23313 | 618 ft | 138 kts | 225° |
| 2026-05-07 20:46 | 48.17731 | 17.22314 | 436 ft | 134 kts | 224° |
| 2026-05-07 20:47 | 48.17172 | 17.21512 | 426 ft | 82 kts | 224° |
| 2026-05-07 20:47 | 48.16925 | 17.21159 | 424 ft | 16 kts | 230° |
| 2026-05-07 20:47 | 48.16918 | 17.21042 | 429 ft | 9 kts | 301° |
| 2026-05-07 20:47 | 48.16960 | 17.20971 | 424 ft | 9 kts | 316° |
| 2026-05-07 20:48 | 48.17004 | 17.20905 | 426 ft | 9 kts | 313° |
| 2026-05-07 20:48 | 48.17045 | 17.20839 | 427 ft | 9 kts | 313° |
| 2026-05-07 20:48 | 48.17084 | 17.20776 | 427 ft | 8 kts | 313° |
| 2026-05-07 20:48 | 48.17123 | 17.20714 | 416 ft | 8 kts | 313° |
| 2026-05-07 20:49 | 48.17160 | 17.20647 | 424 ft | 9 kts | 294° |
| 2026-05-07 20:49 | 48.17146 | 17.20544 | 430 ft | 11 kts | 231° |
| 2026-05-07 20:49 | 48.17092 | 17.20465 | 426 ft | 11 kts | 224° |
| 2026-05-07 20:49 | 48.17040 | 17.20389 | 426 ft | 10 kts | 224° |
| 2026-05-07 20:50 | 48.16989 | 17.20314 | 424 ft | 10 kts | 224° |
| 2026-05-07 20:50 | 48.16939 | 17.20242 | 431 ft | 10 kts | 224° |
| 2026-05-07 20:50 | 48.16908 | 17.20194 | 424 ft | 3 kts | 237° |
| 2026-05-07 20:50 | 48.16919 | 17.20171 | 431 ft | 3 kts | 316° |
| 2026-05-07 20:51 | 48.16935 | 17.20146 | 426 ft | 3 kts | 314° |
| 2026-05-07 20:51 | 48.16944 | 17.20133 | 421 ft | 0 kts | 314° |